sensor_id;sensor_type;location;lat;lon;timestamp;pressure;altitude;pressure_sealevel;temperature;humidity
57594;BME280;43423;46.510;6.686;2022-10-22T00:00:00;96364.16;;;14.32;100.00
57594;BME280;43423;46.510;6.686;2022-10-22T00:02:26;96368.19;;;14.31;100.00
57594;BME280;43423;46.510;6.686;2022-10-22T00:04:52;96372.72;;;14.22;100.00
57594;BME280;43423;46.510;6.686;2022-10-22T00:07:19;96370.94;;;14.14;100.00
57594;BME280;43423;46.510;6.686;2022-10-22T00:09:45;96362.41;;;14.12;100.00
57594;BME280;43423;46.510;6.686;2022-10-22T00:12:12;96362.66;;;14.19;100.00
57594;BME280;43423;46.510;6.686;2022-10-22T00:14:38;96370.94;;;14.19;100.00
57594;BME280;43423;46.510;6.686;2022-10-22T00:17:03;96374.97;;;14.18;100.00
57594;BME280;43423;46.510;6.686;2022-10-22T00:19:29;96389.03;;;14.20;100.00
57594;BME280;43423;46.510;6.686;2022-10-22T00:21:54;96389.81;;;14.21;100.00
57594;BME280;43423;46.510;6.686;2022-10-22T00:24:20;96384.28;;;14.27;100.00
57594;BME280;43423;46.510;6.686;2022-10-22T00:26:46;96381.25;;;14.30;100.00
57594;BME280;43423;46.510;6.686;2022-10-22T00:29:12;96380.25;;;14.28;100.00
57594;BME280;43423;46.510;6.686;2022-10-22T00:31:37;96382.00;;;14.31;100.00
57594;BME280;43423;46.510;6.686;2022-10-22T00:34:03;96366.66;;;14.30;100.00
57594;BME280;43423;46.510;6.686;2022-10-22T00:36:28;96368.44;;;14.21;100.00
57594;BME280;43423;46.510;6.686;2022-10-22T00:38:54;96367.69;;;14.27;100.00
57594;BME280;43423;46.510;6.686;2022-10-22T00:41:19;96365.91;;;14.29;100.00
57594;BME280;43423;46.510;6.686;2022-10-22T00:44:00;96370.69;;;14.29;100.00
57594;BME280;43423;46.510;6.686;2022-10-22T00:46:25;96368.19;;;14.31;100.00
57594;BME280;43423;46.510;6.686;2022-10-22T00:48:52;96379.97;;;14.37;100.00
57594;BME280;43423;46.510;6.686;2022-10-22T00:51:20;96385.78;;;14.39;100.00
57594;BME280;43423;46.510;6.686;2022-10-22T00:53:49;96386.00;;;14.35;100.00
57594;BME280;43423;46.510;6.686;2022-10-22T00:56:17;96397.84;;;14.36;100.00
57594;BME280;43423;46.510;6.686;2022-10-22T00:58:49;96388.53;;;14.28;100.00
57594;BME280;43423;46.510;6.686;2022-10-22T01:01:20;96407.38;;;14.29;100.00
57594;BME280;43423;46.510;6.686;2022-10-22T01:03:47;96419.47;;;14.26;100.00
57594;BME280;43423;46.510;6.686;2022-10-22T01:06:33;96417.47;;;14.27;100.00
57594;BME280;43423;46.510;6.686;2022-10-22T01:09:05;96417.47;;;14.32;100.00
57594;BME280;43423;46.510;6.686;2022-10-22T01:14:23;96454.69;;;14.31;100.00
57594;BME280;43423;46.510;6.686;2022-10-22T01:17:00;96459.94;;;14.29;100.00
57594;BME280;43423;46.510;6.686;2022-10-22T01:22:35;96439.81;;;14.34;100.00
57594;BME280;43423;46.510;6.686;2022-10-22T01:25:21;96429.53;;;14.35;100.00
57594;BME280;43423;46.510;6.686;2022-10-22T01:28:00;96428.03;;;14.22;100.00
57594;BME280;43423;46.510;6.686;2022-10-22T01:30:30;96414.94;;;14.17;100.00
57594;BME280;43423;46.510;6.686;2022-10-22T01:33:00;96429.03;;;14.19;100.00
57594;BME280;43423;46.510;6.686;2022-10-22T01:35:31;96426.50;;;14.21;100.00
57594;BME280;43423;46.510;6.686;2022-10-22T01:38:02;96426.25;;;14.19;100.00
57594;BME280;43423;46.510;6.686;2022-10-22T01:40:29;96437.56;;;14.21;100.00
57594;BME280;43423;46.510;6.686;2022-10-22T01:43:00;96443.59;;;14.25;100.00
57594;BME280;43423;46.510;6.686;2022-10-22T01:45:32;96447.63;;;14.24;100.00
57594;BME280;43423;46.510;6.686;2022-10-22T01:53:30;96433.56;;;14.22;100.00
57594;BME280;43423;46.510;6.686;2022-10-22T01:56:07;96422.75;;;14.24;100.00
57594;BME280;43423;46.510;6.686;2022-10-22T02:01:26;96406.66;;;14.17;100.00
57594;BME280;43423;46.510;6.686;2022-10-22T02:04:03;96413.94;;;14.09;100.00
57594;BME280;43423;46.510;6.686;2022-10-22T02:06:31;96415.69;;;14.18;100.00
57594;BME280;43423;46.510;6.686;2022-10-22T02:08:59;96394.09;;;14.16;100.00
57594;BME280;43423;46.510;6.686;2022-10-22T02:11:25;96397.09;;;14.13;100.00
57594;BME280;43423;46.510;6.686;2022-10-22T02:13:54;96392.31;;;14.13;100.00
57594;BME280;43423;46.510;6.686;2022-10-22T02:16:31;96388.56;;;14.11;100.00
57594;BME280;43423;46.510;6.686;2022-10-22T02:19:01;96384.03;;;14.08;100.00
57594;BME280;43423;46.510;6.686;2022-10-22T02:21:28;96398.88;;;14.10;100.00
57594;BME280;43423;46.510;6.686;2022-10-22T02:23:55;96409.91;;;14.05;100.00
57594;BME280;43423;46.510;6.686;2022-10-22T02:26:31;96415.72;;;14.07;100.00
57594;BME280;43423;46.510;6.686;2022-10-22T02:29:26;96418.72;;;14.09;100.00
57594;BME280;43423;46.510;6.686;2022-10-22T02:31:56;96427.03;;;14.09;100.00
57594;BME280;43423;46.510;6.686;2022-10-22T02:34:26;96427.53;;;14.07;100.00
57594;BME280;43423;46.510;6.686;2022-10-22T02:36:54;96436.56;;;14.13;100.00
57594;BME280;43423;46.510;6.686;2022-10-22T02:39:20;96444.63;;;14.17;100.00
57594;BME280;43423;46.510;6.686;2022-10-22T02:41:47;96445.63;;;14.19;100.00
57594;BME280;43423;46.510;6.686;2022-10-22T02:44:12;96447.88;;;14.21;100.00
57594;BME280;43423;46.510;6.686;2022-10-22T02:46:39;96457.19;;;14.23;100.00
57594;BME280;43423;46.510;6.686;2022-10-22T02:49:06;96451.91;;;14.20;100.00
57594;BME280;43423;46.510;6.686;2022-10-22T02:51:32;96449.91;;;14.26;100.00
57594;BME280;43423;46.510;6.686;2022-10-22T02:53:57;96453.66;;;14.29;100.00
57594;BME280;43423;46.510;6.686;2022-10-22T02:56:23;96450.13;;;14.28;100.00
57594;BME280;43423;46.510;6.686;2022-10-22T02:58:48;96447.38;;;14.28;100.00
57594;BME280;43423;46.510;6.686;2022-10-22T03:01:14;96449.63;;;14.30;100.00
57594;BME280;43423;46.510;6.686;2022-10-22T03:03:39;96449.63;;;14.30;100.00
57594;BME280;43423;46.510;6.686;2022-10-22T03:06:05;96458.94;;;14.27;100.00
57594;BME280;43423;46.510;6.686;2022-10-22T03:08:30;96467.00;;;14.24;100.00
57594;BME280;43423;46.510;6.686;2022-10-22T03:10:56;96463.72;;;14.20;100.00
57594;BME280;43423;46.510;6.686;2022-10-22T03:13:21;96463.47;;;14.18;100.00
57594;BME280;43423;46.510;6.686;2022-10-22T03:15:48;96451.41;;;14.16;100.00
57594;BME280;43423;46.510;6.686;2022-10-22T03:18:15;96460.22;;;14.14;100.00
57594;BME280;43423;46.510;6.686;2022-10-22T03:20:40;96465.75;;;14.14;100.00
57594;BME280;43423;46.510;6.686;2022-10-22T03:23:06;96454.41;;;14.12;100.00
57594;BME280;43423;46.510;6.686;2022-10-22T03:25:32;96456.41;;;14.12;100.00
57594;BME280;43423;46.510;6.686;2022-10-22T03:28:02;96464.47;;;14.10;100.00
57594;BME280;43423;46.510;6.686;2022-10-22T03:30:29;96465.47;;;14.12;100.00
57594;BME280;43423;46.510;6.686;2022-10-22T03:32:55;96477.78;;;14.11;100.00
57594;BME280;43423;46.510;6.686;2022-10-22T03:35:20;96472.50;;;14.13;100.00
57594;BME280;43423;46.510;6.686;2022-10-22T03:37:46;96465.75;;;14.14;100.00
57594;BME280;43423;46.510;6.686;2022-10-22T03:40:12;96461.44;;;14.13;100.00
57594;BME280;43423;46.510;6.686;2022-10-22T03:42:39;96453.41;;;14.10;100.00
57594;BME280;43423;46.510;6.686;2022-10-22T03:45:06;96464.72;;;14.12;100.00
57594;BME280;43423;46.510;6.686;2022-10-22T03:47:31;96468.22;;;14.12;100.00
57594;BME280;43423;46.510;6.686;2022-10-22T03:49:57;96477.03;;;14.11;100.00
57594;BME280;43423;46.510;6.686;2022-10-22T03:52:22;96468.22;;;14.12;100.00
57594;BME280;43423;46.510;6.686;2022-10-22T03:54:48;96483.84;;;14.15;100.00
57594;BME280;43423;46.510;6.686;2022-10-22T03:57:14;96487.88;;;14.14;100.00
57594;BME280;43423;46.510;6.686;2022-10-22T03:59:44;96476.03;;;14.14;100.00
57594;BME280;43423;46.510;6.686;2022-10-22T04:02:11;96481.06;;;14.15;100.00
57594;BME280;43423;46.510;6.686;2022-10-22T04:04:37;96479.81;;;14.16;100.00
57594;BME280;43423;46.510;6.686;2022-10-22T04:07:04;96488.34;;;14.18;100.00
57594;BME280;43423;46.510;6.686;2022-10-22T04:09:31;96489.09;;;14.19;100.00
57594;BME280;43423;46.510;6.686;2022-10-22T04:11:57;96499.41;;;14.18;100.00
57594;BME280;43423;46.510;6.686;2022-10-22T04:14:22;96497.16;;;14.17;100.00
57594;BME280;43423;46.510;6.686;2022-10-22T04:16:48;96495.13;;;14.12;100.00
57594;BME280;43423;46.510;6.686;2022-10-22T04:19:13;96506.19;;;14.06;100.00
57594;BME280;43423;46.510;6.686;2022-10-22T04:21:39;96502.19;;;14.07;100.00
57594;BME280;43423;46.510;6.686;2022-10-22T04:24:05;96507.94;;;14.09;100.00
57594;BME280;43423;46.510;6.686;2022-10-22T04:26:30;96508.72;;;14.10;100.00
57594;BME280;43423;46.510;6.686;2022-10-22T04:28:56;96509.97;;;14.14;100.00
57594;BME280;43423;46.510;6.686;2022-10-22T04:31:24;96514.50;;;14.17;100.00
57594;BME280;43423;46.510;6.686;2022-10-22T04:33:54;96502.69;;;14.17;100.00
57594;BME280;43423;46.510;6.686;2022-10-22T04:36:21;96508.22;;;14.17;100.00
57594;BME280;43423;46.510;6.686;2022-10-22T04:38:52;96519.50;;;14.13;100.00
57594;BME280;43423;46.510;6.686;2022-10-22T04:41:19;96519.50;;;14.13;100.00
57594;BME280;43423;46.510;6.686;2022-10-22T04:43:45;96529.59;;;14.16;100.00
57594;BME280;43423;46.510;6.686;2022-10-22T04:46:12;96527.31;;;14.15;100.00
57594;BME280;43423;46.510;6.686;2022-10-22T04:48:39;96525.78;;;14.14;100.00
57594;BME280;43423;46.510;6.686;2022-10-22T04:51:07;96530.84;;;14.15;100.00
57594;BME280;43423;46.510;6.686;2022-10-22T04:53:33;96521.53;;;14.07;100.00
57594;BME280;43423;46.510;6.686;2022-10-22T04:56:10;96530.56;;;14.13;100.00
57594;BME280;43423;46.510;6.686;2022-10-22T04:58:36;96528.81;;;14.10;100.00
57594;BME280;43423;46.510;6.686;2022-10-22T05:01:32;96524.03;;;14.05;100.00
57594;BME280;43423;46.510;6.686;2022-10-22T05:04:00;96513.97;;;14.02;100.00
57594;BME280;43423;46.510;6.686;2022-10-22T05:06:28;96514.22;;;13.99;100.00
57594;BME280;43423;46.510;6.686;2022-10-22T05:08:57;96521.00;;;13.92;100.00
57594;BME280;43423;46.510;6.686;2022-10-22T05:11:25;96525.75;;;13.97;100.00
57594;BME280;43423;46.510;6.686;2022-10-22T05:13:54;96526.28;;;13.95;100.00
57594;BME280;43423;46.510;6.686;2022-10-22T05:16:20;96535.31;;;13.96;100.00
57594;BME280;43423;46.510;6.686;2022-10-22T05:18:45;96533.31;;;13.96;100.00
57594;BME280;43423;46.510;6.686;2022-10-22T05:21:20;96518.97;;;13.98;100.00
57594;BME280;43423;46.510;6.686;2022-10-22T05:23:48;96522.75;;;13.95;100.00
57594;BME280;43423;46.510;6.686;2022-10-22T05:26:16;96515.22;;;13.95;100.00
57594;BME280;43423;46.510;6.686;2022-10-22T05:28:42;96523.75;;;13.97;100.00
57594;BME280;43423;46.510;6.686;2022-10-22T05:31:11;96532.06;;;14.03;100.00
57594;BME280;43423;46.510;6.686;2022-10-22T05:33:37;96533.31;;;13.96;100.00
57594;BME280;43423;46.510;6.686;2022-10-22T05:36:04;96535.56;;;13.98;100.00
57594;BME280;43423;46.510;6.686;2022-10-22T05:38:33;96536.31;;;13.93;100.00
57594;BME280;43423;46.510;6.686;2022-10-22T05:41:05;96534.31;;;13.93;100.00
57594;BME280;43423;46.510;6.686;2022-10-22T05:43:30;96538.06;;;13.85;100.00
57594;BME280;43423;46.510;6.686;2022-10-22T05:46:00;96551.88;;;13.85;100.00
57594;BME280;43423;46.510;6.686;2022-10-22T05:48:27;96554.66;;;13.85;100.00
57594;BME280;43423;46.510;6.686;2022-10-22T05:50:52;96564.41;;;13.80;100.00
57594;BME280;43423;46.510;6.686;2022-10-22T05:53:18;96562.16;;;13.79;100.00
57594;BME280;43423;46.510;6.686;2022-10-22T05:55:44;96562.41;;;13.81;100.00
57594;BME280;43423;46.510;6.686;2022-10-22T05:58:11;96563.41;;;13.78;100.00
57594;BME280;43423;46.510;6.686;2022-10-22T06:00:37;96572.72;;;13.75;100.00
57594;BME280;43423;46.510;6.686;2022-10-22T06:03:02;96570.91;;;13.72;100.00
57594;BME280;43423;46.510;6.686;2022-10-22T06:05:27;96574.69;;;13.68;100.00
57594;BME280;43423;46.510;6.686;2022-10-22T06:07:54;96574.91;;;13.65;100.00
57594;BME280;43423;46.510;6.686;2022-10-22T06:10:20;96560.31;;;13.53;100.00
57594;BME280;43423;46.510;6.686;2022-10-22T06:12:46;96568.34;;;13.51;100.00
57594;BME280;43423;46.510;6.686;2022-10-22T06:15:15;96583.66;;;13.52;100.00
57594;BME280;43423;46.510;6.686;2022-10-22T06:17:43;96569.28;;;13.43;100.00
57594;BME280;43423;46.510;6.686;2022-10-22T06:20:09;96569.28;;;13.43;100.00
57594;BME280;43423;46.510;6.686;2022-10-22T06:22:34;96575.56;;;13.43;100.00
57594;BME280;43423;46.510;6.686;2022-10-22T06:25:00;96585.09;;;13.42;100.00
57594;BME280;43423;46.510;6.686;2022-10-22T06:27:26;96583.59;;;13.41;100.00
57594;BME280;43423;46.510;6.686;2022-10-22T06:29:51;96595.41;;;13.47;100.00
57594;BME280;43423;46.510;6.686;2022-10-22T06:32:17;96598.19;;;13.47;100.00
57594;BME280;43423;46.510;6.686;2022-10-22T06:34:42;96604.25;;;13.51;100.00
57594;BME280;43423;46.510;6.686;2022-10-22T06:37:09;96603.72;;;13.47;100.00
57594;BME280;43423;46.510;6.686;2022-10-22T06:39:34;96599.69;;;13.48;100.00
57594;BME280;43423;46.510;6.686;2022-10-22T06:42:00;96603.47;;;13.51;100.00
57594;BME280;43423;46.510;6.686;2022-10-22T06:44:26;96615.06;;;13.55;100.00
57594;BME280;43423;46.510;6.686;2022-10-22T06:46:52;96616.06;;;13.57;100.00
57594;BME280;43423;46.510;6.686;2022-10-22T06:49:19;96619.34;;;13.61;100.00
57594;BME280;43423;46.510;6.686;2022-10-22T06:51:47;96614.34;;;13.65;100.00
57594;BME280;43423;46.510;6.686;2022-10-22T06:54:13;96623.66;;;13.68;100.00
57594;BME280;43423;46.510;6.686;2022-10-22T06:56:39;96620.91;;;13.74;100.00
57594;BME280;43423;46.510;6.686;2022-10-22T06:59:05;96628.47;;;13.79;100.00
57594;BME280;43423;46.510;6.686;2022-10-22T07:01:32;96636.56;;;13.88;100.00
57594;BME280;43423;46.510;6.686;2022-10-22T07:03:59;96641.66;;;14.01;100.00
57594;BME280;43423;46.510;6.686;2022-10-22T07:06:26;96635.66;;;14.13;100.00
57594;BME280;43423;46.510;6.686;2022-10-22T07:08:53;96650.78;;;14.23;100.00
57594;BME280;43423;46.510;6.686;2022-10-22T07:11:22;96640.97;;;14.28;100.00
57594;BME280;43423;46.510;6.686;2022-10-22T07:13:48;96644.78;;;14.31;100.00
57594;BME280;43423;46.510;6.686;2022-10-22T07:16:15;96646.53;;;14.34;100.00
57594;BME280;43423;46.510;6.686;2022-10-22T07:18:42;96650.81;;;14.35;100.00
57594;BME280;43423;46.510;6.686;2022-10-22T07:21:08;96657.38;;;14.43;100.00
57594;BME280;43423;46.510;6.686;2022-10-22T07:23:34;96663.69;;;14.49;100.00
57594;BME280;43423;46.510;6.686;2022-10-22T07:26:00;96660.94;;;14.60;100.00
57594;BME280;43423;46.510;6.686;2022-10-22T07:28:31;96645.88;;;14.72;100.00
57594;BME280;43423;46.510;6.686;2022-10-22T07:30:59;96643.13;;;14.72;100.00
57594;BME280;43423;46.510;6.686;2022-10-22T07:33:25;96638.84;;;14.71;99.53
57594;BME280;43423;46.510;6.686;2022-10-22T07:35:57;96646.38;;;14.99;100.00
57594;BME280;43423;46.510;6.686;2022-10-22T07:38:23;96652.69;;;14.99;100.00
57594;BME280;43423;46.510;6.686;2022-10-22T07:40:48;96646.66;;;14.78;96.41
57594;BME280;43423;46.510;6.686;2022-10-22T07:43:14;96656.47;;;14.79;98.32
57594;BME280;43423;46.510;6.686;2022-10-22T07:45:39;96651.44;;;14.78;99.89
57594;BME280;43423;46.510;6.686;2022-10-22T07:48:06;96656.94;;;14.72;98.75
57594;BME280;43423;46.510;6.686;2022-10-22T07:50:32;96656.94;;;14.84;97.61
57594;BME280;43423;46.510;6.686;2022-10-22T07:52:57;96652.19;;;14.90;96.00
57594;BME280;43423;46.510;6.686;2022-10-22T07:55:23;96652.19;;;15.01;98.68
57594;BME280;43423;46.510;6.686;2022-10-22T07:57:48;96649.66;;;15.14;95.30
57594;BME280;43423;46.510;6.686;2022-10-22T08:00:14;96638.59;;;15.14;93.54
57594;BME280;43423;46.510;6.686;2022-10-22T08:02:40;96648.91;;;15.30;91.96
57594;BME280;43423;46.510;6.686;2022-10-22T08:05:06;96654.91;;;15.46;93.53
57594;BME280;43423;46.510;6.686;2022-10-22T08:07:32;96658.97;;;15.39;90.99
57594;BME280;43423;46.510;6.686;2022-10-22T08:09:57;96660.97;;;15.44;91.45
57594;BME280;43423;46.510;6.686;2022-10-22T08:12:23;96667.28;;;15.45;89.32
57594;BME280;43423;46.510;6.686;2022-10-22T08:14:48;96669.53;;;15.57;88.48
57594;BME280;43423;46.510;6.686;2022-10-22T08:17:14;96674.06;;;15.55;88.03
57594;BME280;43423;46.510;6.686;2022-10-22T08:19:39;96667.03;;;15.65;88.68
57594;BME280;43423;46.510;6.686;2022-10-22T08:22:05;96676.06;;;15.77;89.01
57594;BME280;43423;46.510;6.686;2022-10-22T08:24:31;96675.59;;;15.67;87.40
57594;BME280;43423;46.510;6.686;2022-10-22T08:26:56;96680.81;;;15.87;88.11
57594;BME280;43423;46.510;6.686;2022-10-22T08:29:22;96672.50;;;15.87;85.18
57594;BME280;43423;46.510;6.686;2022-10-22T08:31:49;96679.06;;;15.90;83.59
57594;BME280;43423;46.510;6.686;2022-10-22T08:34:15;96685.06;;;15.94;82.99
57594;BME280;43423;46.510;6.686;2022-10-22T08:36:41;96673.19;;;16.10;83.19
57594;BME280;43423;46.510;6.686;2022-10-22T08:39:07;96679.69;;;16.24;80.70
57594;BME280;43423;46.510;6.686;2022-10-22T08:41:43;96682.06;;;16.56;81.41
57594;BME280;43423;46.510;6.686;2022-10-22T08:47:27;96689.03;;;16.73;79.55
57594;BME280;43423;46.510;6.686;2022-10-22T08:49:58;96697.63;;;16.76;78.37
57594;BME280;43423;46.510;6.686;2022-10-22T08:52:25;96696.66;;;16.62;78.73
57594;BME280;43423;46.510;6.686;2022-10-22T08:54:52;96701.69;;;16.63;77.00
57594;BME280;43423;46.510;6.686;2022-10-22T09:00:03;96697.56;;;16.81;79.59
57594;BME280;43423;46.510;6.686;2022-10-22T09:05:28;96694.63;;;17.09;80.11
57594;BME280;43423;46.510;6.686;2022-10-22T09:07:57;96689.22;;;17.22;76.37
57594;BME280;43423;46.510;6.686;2022-10-22T09:10:34;96693.69;;;17.31;74.88
57594;BME280;43423;46.510;6.686;2022-10-22T09:13:00;96684.47;;;17.17;74.24
57594;BME280;43423;46.510;6.686;2022-10-22T09:15:26;96694.88;;;17.06;74.43
57594;BME280;43423;46.510;6.686;2022-10-22T09:18:09;96690.97;;;17.25;76.37
57594;BME280;43423;46.510;6.686;2022-10-22T09:20:47;96693.19;;;17.33;74.93
57594;BME280;43423;46.510;6.686;2022-10-22T09:25:47;96697.78;;;17.54;75.87
57594;BME280;43423;46.510;6.686;2022-10-22T09:28:13;96687.41;;;17.30;75.84
57594;BME280;43423;46.510;6.686;2022-10-22T09:30:39;96693.81;;;17.44;74.88
57594;BME280;43423;46.510;6.686;2022-10-22T09:35:44;96700.47;;;17.36;71.01
57594;BME280;43423;46.510;6.686;2022-10-22T09:38:12;96701.94;;;17.42;74.67
57594;BME280;43423;46.510;6.686;2022-10-22T09:40:52;96697.75;;;17.30;71.04
57594;BME280;43423;46.510;6.686;2022-10-22T09:43:18;96702.59;;;17.54;72.14
57594;BME280;43423;46.510;6.686;2022-10-22T09:45:45;96701.06;;;17.53;71.26
57594;BME280;43423;46.510;6.686;2022-10-22T09:50:48;96697.22;;;17.62;73.01
57594;BME280;43423;46.510;6.686;2022-10-22T09:53:29;96695.09;;;17.73;70.55
57594;BME280;43423;46.510;6.686;2022-10-22T09:55:58;96688.44;;;17.82;70.02
57594;BME280;43423;46.510;6.686;2022-10-22T09:58:24;96694.81;;;18.01;69.99
57594;BME280;43423;46.510;6.686;2022-10-22T10:00:58;96705.34;;;18.08;66.47
57594;BME280;43423;46.510;6.686;2022-10-22T10:03:30;96697.31;;;17.80;67.38
57594;BME280;43423;46.510;6.686;2022-10-22T10:05:59;96703.72;;;17.70;67.44
57594;BME280;43423;46.510;6.686;2022-10-22T10:08:25;96704.97;;;17.74;71.52
57594;BME280;43423;46.510;6.686;2022-10-22T10:11:11;96698.94;;;17.95;68.01
57594;BME280;43423;46.510;6.686;2022-10-22T10:16:47;96699.78;;;18.08;70.55
57594;BME280;43423;46.510;6.686;2022-10-22T10:25:56;96699.00;;;17.89;72.53
57594;BME280;43423;46.510;6.686;2022-10-22T10:36:16;96701.75;;;18.13;69.85
57594;BME280;43423;46.510;6.686;2022-10-22T10:38:49;96696.34;;;18.21;67.75
57594;BME280;43423;46.510;6.686;2022-10-22T10:47:45;96687.03;;;18.19;65.48
57594;BME280;43423;46.510;6.686;2022-10-22T10:49:46;96686.91;;;18.30;67.03
57594;BME280;43423;46.510;6.686;2022-10-22T10:55:25;96682.22;;;18.38;66.13
57594;BME280;43423;46.510;6.686;2022-10-22T11:04:05;96678.94;;;18.96;66.53
57594;BME280;43423;46.510;6.686;2022-10-22T11:06:36;96677.06;;;19.04;66.43
57594;BME280;43423;46.510;6.686;2022-10-22T11:09:18;96674.25;;;19.04;64.85
57594;BME280;43423;46.510;6.686;2022-10-22T11:11:50;96675.50;;;18.90;66.16
57594;BME280;43423;46.510;6.686;2022-10-22T11:16:55;96670.81;;;18.98;62.54
57594;BME280;43423;46.510;6.686;2022-10-22T11:19:29;96660.50;;;18.93;59.14
57594;BME280;43423;46.510;6.686;2022-10-22T11:27:52;96645.63;;;19.49;59.64
57594;BME280;43423;46.510;6.686;2022-10-22T11:30:23;96645.50;;;20.00;61.80
57594;BME280;43423;46.510;6.686;2022-10-22T11:32:54;96648.03;;;20.11;57.88
57594;BME280;43423;46.510;6.686;2022-10-22T11:35:25;96651.16;;;20.21;60.26
57594;BME280;43423;46.510;6.686;2022-10-22T11:37:54;96646.56;;;19.84;58.08
57594;BME280;43423;46.510;6.686;2022-10-22T11:40:38;96646.09;;;19.66;58.96
57594;BME280;43423;46.510;6.686;2022-10-22T11:43:09;96642.03;;;19.80;59.50
57594;BME280;43423;46.510;6.686;2022-10-22T11:45:37;96638.63;;;20.01;59.42
57594;BME280;43423;46.510;6.686;2022-10-22T11:48:16;96639.22;;;20.33;59.05
57594;BME280;43423;46.510;6.686;2022-10-22T11:50:50;96639.63;;;20.51;60.56
57594;BME280;43423;46.510;6.686;2022-10-22T11:53:32;96638.31;;;20.65;56.76
57594;BME280;43423;46.510;6.686;2022-10-22T12:03:40;96632.97;;;20.88;54.50
57594;BME280;43423;46.510;6.686;2022-10-22T12:11:24;96630.22;;;20.75;58.26
57594;BME280;43423;46.510;6.686;2022-10-22T12:14:17;96628.03;;;20.81;59.37
57594;BME280;43423;46.510;6.686;2022-10-22T12:19:23;96624.81;;;20.29;58.69
57594;BME280;43423;46.510;6.686;2022-10-22T12:21:56;96633.19;;;20.56;58.80
57594;BME280;43423;46.510;6.686;2022-10-22T12:24:24;96623.72;;;20.46;60.82
57594;BME280;43423;46.510;6.686;2022-10-22T12:26:50;96620.19;;;20.45;58.48
57594;BME280;43423;46.510;6.686;2022-10-22T12:29:18;96612.38;;;20.78;57.77
57594;BME280;43423;46.510;6.686;2022-10-22T12:31:45;96616.47;;;20.98;57.67
57594;BME280;43423;46.510;6.686;2022-10-22T12:34:17;96603.84;;;21.04;58.08
57594;BME280;43423;46.510;6.686;2022-10-22T12:36:43;96603.97;;;21.40;55.87
57594;BME280;43423;46.510;6.686;2022-10-22T12:39:15;96605.28;;;21.68;54.92
57594;BME280;43423;46.510;6.686;2022-10-22T12:41:41;96598.09;;;21.52;55.64
57594;BME280;43423;46.510;6.686;2022-10-22T12:44:11;96603.97;;;21.40;55.39
57594;BME280;43423;46.510;6.686;2022-10-22T12:46:38;96601.31;;;21.14;54.60
57594;BME280;43423;46.510;6.686;2022-10-22T12:49:07;96598.81;;;21.03;57.90
57594;BME280;43423;46.510;6.686;2022-10-22T12:51:35;96589.19;;;21.11;57.71
57594;BME280;43423;46.510;6.686;2022-10-22T12:54:06;96596.94;;;21.47;57.87
57594;BME280;43423;46.510;6.686;2022-10-22T12:56:34;96586.41;;;20.90;56.25
57594;BME280;43423;46.510;6.686;2022-10-22T12:59:05;96587.34;;;20.72;58.87
57594;BME280;43423;46.510;6.686;2022-10-22T13:01:38;96593.00;;;21.01;56.49
57594;BME280;43423;46.510;6.686;2022-10-22T13:06:50;96579.59;;;20.78;56.53
57594;BME280;43423;46.510;6.686;2022-10-22T13:09:20;96580.50;;;21.23;57.05
57594;BME280;43423;46.510;6.686;2022-10-22T13:11:56;96574.06;;;21.28;59.37
57594;BME280;43423;46.510;6.686;2022-10-22T13:17:13;96573.06;;;21.46;55.10
57594;BME280;43423;46.510;6.686;2022-10-22T13:19:46;96577.66;;;21.15;58.12
57594;BME280;43423;46.510;6.686;2022-10-22T13:22:36;96570.97;;;20.76;60.71
57594;BME280;43423;46.510;6.686;2022-10-22T13:32:52;96573.25;;;20.44;60.52
57594;BME280;43423;46.510;6.686;2022-10-22T13:35:22;96569.22;;;20.86;59.63
57594;BME280;43423;46.510;6.686;2022-10-22T13:37:48;96567.16;;;20.66;60.15
57594;BME280;43423;46.510;6.686;2022-10-22T13:40:14;96567.16;;;20.66;59.09
57594;BME280;43423;46.510;6.686;2022-10-22T13:42:39;96559.13;;;21.04;58.14
57594;BME280;43423;46.510;6.686;2022-10-22T13:45:05;96565.78;;;21.22;57.63
57594;BME280;43423;46.510;6.686;2022-10-22T13:47:32;96566.66;;;21.17;58.34
57594;BME280;43423;46.510;6.686;2022-10-22T13:50:00;96560.59;;;21.26;57.57
57594;BME280;43423;46.510;6.686;2022-10-22T13:52:38;96559.19;;;21.12;57.66
57594;BME280;43423;46.510;6.686;2022-10-22T13:55:22;96562.31;;;21.08;57.29
57594;BME280;43423;46.510;6.686;2022-10-22T13:57:52;96556.44;;;21.19;56.76
57594;BME280;43423;46.510;6.686;2022-10-22T14:00:24;96567.22;;;21.15;57.10
57594;BME280;43423;46.510;6.686;2022-10-22T14:02:52;96568.91;;;21.39;57.94
57594;BME280;43423;46.510;6.686;2022-10-22T14:05:18;96562.31;;;21.29;56.63
57594;BME280;43423;46.510;6.686;2022-10-22T14:07:45;96560.06;;;21.07;56.24
57594;BME280;43423;46.510;6.686;2022-10-22T14:10:21;96562.59;;;20.97;56.23
57594;BME280;43423;46.510;6.686;2022-10-22T14:12:48;96557.56;;;20.96;57.60
57594;BME280;43423;46.510;6.686;2022-10-22T14:15:16;96549.84;;;20.68;56.80
57594;BME280;43423;46.510;6.686;2022-10-22T14:17:52;96546.59;;;20.56;56.58
57594;BME280;43423;46.510;6.686;2022-10-22T14:20:20;96540.38;;;20.36;56.83
57594;BME280;43423;46.510;6.686;2022-10-22T14:22:49;96533.94;;;20.42;56.99
57594;BME280;43423;46.510;6.686;2022-10-22T14:25:17;96535.13;;;20.67;57.16
57594;BME280;43423;46.510;6.686;2022-10-22T14:27:43;96537.25;;;20.74;56.61
57594;BME280;43423;46.510;6.686;2022-10-22T14:30:12;96541.31;;;20.52;56.42
57594;BME280;43423;46.510;6.686;2022-10-22T14:32:38;96540.97;;;20.22;57.17
57594;BME280;43423;46.510;6.686;2022-10-22T14:35:04;96531.63;;;20.19;58.54
57594;BME280;43423;46.510;6.686;2022-10-22T14:37:29;96523.72;;;20.10;57.63
57594;BME280;43423;46.510;6.686;2022-10-22T14:39:55;96523.34;;;19.93;57.66
57594;BME280;43423;46.510;6.686;2022-10-22T14:42:26;96522.25;;;19.96;58.34